Time;durP1;ratioP1;P1;durP2;ratioP2;P2;SDS_P1;SDS_P2;PMS_P1;PMS_P2;Temp;Humidity;BMP_temperature;BMP_pressure;BME280_temperature;BME280_humidity;BME280_pressure;Samples;Min_cycle;Max_cycle;Signal;HPM_P1;HPM_P2
2021/08/15 00:01:50;;;;;;;12.90;11.70;;;;;;;24.32;67.68;99433.56;5035770;28;20230;-87
2021/08/15 00:04:17;;;;;;;12.75;11.45;;;;;;;24.29;67.84;99425.19;5018897;28;20242;-87
2021/08/15 00:06:44;;;;;;;13.45;11.77;;;;;;;24.30;67.43;99426.81;5035559;28;20218;-86
2021/08/15 00:09:11;;;;;;;12.48;11.32;;;;;;;24.25;67.76;99424.19;5019167;28;20238;-87
2021/08/15 00:11:38;;;;;;;12.10;10.90;;;;;;;24.23;67.47;99423.69;5019275;28;20234;-87
2021/08/15 00:14:04;;;;;;;12.90;10.85;;;;;;;24.14;67.26;99413.47;5035163;28;20345;-87
2021/08/15 00:16:32;;;;;;;12.10;10.90;;;;;;;24.22;67.01;99428.34;5051931;28;20222;-87
2021/08/15 00:19:04;;;;;;;12.63;10.20;;;;;;;24.21;66.82;99423.22;5035613;28;20237;-87
2021/08/15 00:21:33;;;;;;;14.93;10.85;;;;;;;24.17;66.82;99416.75;5019793;28;20261;-87
2021/08/15 00:24:00;;;;;;;12.75;11.38;;;;;;;24.19;66.51;99419.97;5035492;28;20241;-87
2021/08/15 00:26:27;;;;;;;14.40;10.50;;;;;;;24.08;66.34;99402.97;5035145;28;20237;-87
2021/08/15 00:28:54;;;;;;;12.02;10.70;;;;;;;24.09;66.53;99401.84;5034989;28;20320;-87
2021/08/15 00:31:20;;;;;;;11.50;10.23;;;;;;;24.13;66.49;99413.78;5018922;28;20265;-87
2021/08/15 00:33:47;;;;;;;13.52;10.63;;;;;;;24.13;66.41;99413.78;5036306;28;20234;-86
2021/08/15 00:36:14;;;;;;;11.82;9.85;;;;;;;24.11;66.24;99416.84;5051197;28;20299;-87
2021/08/15 00:38:41;;;;;;;12.75;10.00;;;;;;;24.02;66.26;99398.78;5035009;28;20299;-86
2021/08/15 00:41:08;;;;;;;10.93;9.82;;;;;;;23.97;66.32;99405.19;5018526;28;20222;-87
2021/08/15 00:43:34;;;;;;;12.55;10.45;;;;;;;23.93;66.34;99406.13;5018483;28;20284;-87
2021/08/15 00:46:12;;;;;;;11.52;10.45;;;;;;;23.93;66.48;99406.13;5049496;28;20230;-87
2021/08/15 00:48:40;;;;;;;12.30;10.30;;;;;;;23.99;66.38;99413.88;5035644;28;20225;-86
2021/08/15 00:51:08;;;;;;;12.27;10.38;;;;;;;23.97;66.65;99409.84;5002168;28;20263;-87
2021/08/15 00:53:38;;;;;;;14.52;10.70;;;;;;;23.95;66.34;99410.16;5018113;28;20233;-87
2021/08/15 00:56:06;;;;;;;13.43;10.07;;;;;;;23.89;66.70;99405.13;5017954;28;20241;-87
2021/08/15 00:58:33;;;;;;;12.85;10.60;;;;;;;23.88;66.54;99409.81;5034543;28;20244;-87
2021/08/15 01:01:07;;;;;;;10.85;9.75;;;;;;;23.79;66.71;99398.00;5034567;28;20268;-87
2021/08/15 01:03:35;;;;;;;13.43;10.70;;;;;;;23.82;66.85;99407.50;5034063;28;20237;-87
2021/08/15 01:06:03;;;;;;;11.98;10.45;;;;;;;23.79;66.89;99411.66;5017574;28;20234;-87
2021/08/15 01:08:30;;;;;;;11.25;10.05;;;;;;;23.72;67.53;99407.75;5018020;28;20630;-87
2021/08/15 01:11:05;;;;;;;12.70;10.25;;;;;;;23.69;67.19;99411.91;5017944;28;20262;-87
2021/08/15 01:13:33;;;;;;;11.68;10.02;;;;;;;23.64;67.66;99401.91;5034218;28;20358;-87
2021/08/15 01:16:08;;;;;;;11.50;10.40;;;;;;;23.60;67.63;99398.19;5034452;28;20230;-87
2021/08/15 01:18:38;;;;;;;13.10;10.00;;;;;;;23.70;67.34;99405.34;5017945;28;20227;-87
2021/08/15 01:21:07;;;;;;;12.15;10.38;;;;;;;23.67;67.44;99404.00;5017962;28;20241;-87
2021/08/15 01:23:36;;;;;;;12.45;10.40;;;;;;;23.61;67.53;99401.69;5034154;28;20314;-88
2021/08/15 01:26:07;;;;;;;13.73;10.43;;;;;;;23.61;67.60;99402.50;5001670;28;20236;-87
2021/08/15 01:28:34;;;;;;;14.50;10.82;;;;;;;23.59;67.60;99401.22;5017776;28;20233;-87
2021/08/15 01:31:01;;;;;;;12.02;10.25;;;;;;;23.56;67.92;99408.09;5034324;28;20257;-88
2021/08/15 01:33:39;;;;;;;13.65;10.40;;;;;;;23.48;67.81;99397.91;5034142;28;20240;-87
2021/08/15 01:36:08;;;;;;;12.90;10.13;;;;;;;23.47;68.22;99409.97;5033747;28;20227;-88
2021/08/15 01:38:37;;;;;;;11.15;10.02;;;;;;;23.37;68.21;99398.44;5017668;28;20307;-88
2021/08/15 01:41:04;;;;;;;11.75;10.35;;;;;;;23.27;68.28;99394.84;5033929;28;20641;-86
2021/08/15 01:43:34;;;;;;;11.73;10.13;;;;;;;23.30;68.44;99398.06;5033987;28;20244;-88
2021/08/15 01:46:01;;;;;;;11.90;10.27;;;;;;;23.31;68.49;99405.13;5034714;28;20230;-87
2021/08/15 01:48:28;;;;;;;10.95;9.85;;;;;;;23.17;68.64;99386.06;5034081;28;20233;-88
2021/08/15 01:50:55;;;;;;;13.95;10.45;;;;;;;23.23;68.45;99402.03;5017528;28;20533;-86
2021/08/15 01:53:22;;;;;;;12.20;10.70;;;;;;;23.25;68.54;99408.00;5033734;28;20241;-87
2021/08/15 01:55:49;;;;;;;12.35;10.43;;;;;;;23.15;69.11;99404.66;5035023;28;20263;-88
2021/08/15 01:58:16;;;;;;;14.20;10.35;;;;;;;23.16;68.88;99404.38;5033330;28;20235;-88
2021/08/15 02:00:44;;;;;;;14.32;10.75;;;;;;;23.18;69.05;99415.00;5050351;28;20280;-87
2021/08/15 02:03:11;;;;;;;13.90;10.95;;;;;;;23.05;69.00;99405.69;5033741;28;20253;-88
2021/08/15 02:05:40;;;;;;;15.55;11.68;;;;;;;23.06;68.94;99412.78;5034016;28;20233;-88
2021/08/15 02:08:07;;;;;;;12.73;10.50;;;;;;;23.05;69.18;99413.91;5033390;28;20233;-86
2021/08/15 02:10:35;;;;;;;12.98;10.48;;;;;;;23.02;69.21;99416.44;5033821;28;20314;-88
2021/08/15 02:13:03;;;;;;;12.80;11.43;;;;;;;23.04;69.19;99419.69;5033827;28;20266;-88
2021/08/15 02:15:31;;;;;;;15.15;11.25;;;;;;;22.99;69.23;99409.69;5018789;28;20233;-87
2021/08/15 02:18:00;;;;;;;14.70;11.53;;;;;;;23.06;69.50;99423.72;5037853;28;20226;-85
2021/08/15 02:20:29;;;;;;;13.05;11.15;;;;;;;23.04;69.28;99411.50;5004646;28;20286;-85
2021/08/15 02:22:56;;;;;;;14.77;10.90;;;;;;;23.03;69.34;99412.59;5021098;28;20225;-86
2021/08/15 02:25:24;;;;;;;12.60;11.30;;;;;;;23.00;69.22;99411.31;5021265;28;20534;-85
2021/08/15 02:27:52;;;;;;;12.93;11.63;;;;;;;22.92;69.48;99409.28;5037381;28;20224;-85
2021/08/15 02:30:22;;;;;;;14.23;11.70;;;;;;;22.95;69.41;99414.13;5020601;28;20290;-85
2021/08/15 02:32:49;;;;;;;12.93;11.63;;;;;;;22.89;69.64;99400.88;5020789;28;20233;-85
2021/08/15 02:35:16;;;;;;;13.90;11.87;;;;;;;22.88;69.53;99394.63;5037244;28;20237;-85
2021/08/15 02:37:47;;;;;;;13.83;11.73;;;;;;;22.90;69.21;99402.50;5037334;28;20575;-85
2021/08/15 02:40:15;;;;;;;13.43;11.63;;;;;;;22.91;69.80;99401.41;5036986;28;20352;-85
2021/08/15 02:42:43;;;;;;;13.52;12.10;;;;;;;22.85;70.16;99400.69;5037088;28;20238;-85
2021/08/15 02:45:12;;;;;;;12.97;11.67;;;;;;;22.75;70.17;99379.88;5020491;28;20265;-86
2021/08/15 02:47:39;;;;;;;13.10;11.80;;;;;;;22.78;70.23;99378.44;5020484;28;20289;-85
2021/08/15 02:50:06;;;;;;;14.90;12.10;;;;;;;22.78;70.15;99384.72;5036692;28;20538;-85
2021/08/15 02:52:33;;;;;;;14.63;12.13;;;;;;;22.78;69.92;99389.34;5020621;28;20315;-85
2021/08/15 02:55:01;;;;;;;13.60;11.90;;;;;;;22.73;70.06;99390.28;5020299;28;20331;-85
2021/08/15 02:57:28;;;;;;;14.63;12.03;;;;;;;22.72;69.86;99385.13;5020801;28;20283;-85
2021/08/15 02:59:55;;;;;;;13.70;12.30;;;;;;;22.74;69.87;99391.09;5036627;28;20640;-85
2021/08/15 03:02:23;;;;;;;13.03;11.73;;;;;;;22.70;70.02;99384.63;5053097;28;20224;-85
2021/08/15 03:04:50;;;;;;;13.17;11.77;;;;;;;22.69;69.98;99378.31;5036720;28;20296;-85
2021/08/15 03:07:18;;;;;;;13.80;12.20;;;;;;;22.69;70.14;99383.78;5036655;28;20226;-85
2021/08/15 03:09:46;;;;;;;14.03;12.53;;;;;;;22.68;70.47;99384.06;5036482;28;20582;-85
2021/08/15 03:12:12;;;;;;;13.40;12.20;;;;;;;22.63;70.31;99373.28;5036134;28;20259;-85
2021/08/15 03:14:39;;;;;;;14.03;12.57;;;;;;;22.61;70.34;99376.31;5036541;28;20281;-85
2021/08/15 03:17:08;;;;;;;14.07;12.57;;;;;;;22.59;70.42;99377.72;5036516;28;20291;-85
2021/08/15 03:19:35;;;;;;;13.93;12.53;;;;;;;22.62;70.63;99388.03;5020253;28;20231;-85
2021/08/15 03:22:05;;;;;;;14.50;13.10;;;;;;;22.62;70.82;99377.94;5035973;28;20239;-85
2021/08/15 03:24:32;;;;;;;14.53;12.70;;;;;;;22.59;70.74;99374.97;5003760;28;20728;-85
2021/08/15 03:26:59;;;;;;;13.70;12.40;;;;;;;22.55;70.88;99372.06;5035826;28;20263;-86
2021/08/15 03:29:26;;;;;;;13.63;12.30;;;;;;;22.55;71.07;99382.16;5035858;28;20689;-85
2021/08/15 03:31:56;;;;;;;13.37;12.20;;;;;;;22.41;70.92;99365.78;5019922;28;20291;-85
2021/08/15 03:34:23;;;;;;;14.73;13.17;;;;;;;22.39;70.98;99363.38;5035518;28;20295;-85
2021/08/15 03:36:50;;;;;;;15.40;12.60;;;;;;;22.42;70.64;99375.59;5036290;28;20303;-85
2021/08/15 03:39:17;;;;;;;15.03;13.30;;;;;;;22.42;70.91;99370.16;5019500;28;20248;-85
2021/08/15 03:41:44;;;;;;;14.50;13.10;;;;;;;22.47;71.08;99380.97;5035847;28;20229;-86
2021/08/15 03:44:10;;;;;;;16.60;13.20;;;;;;;22.47;71.41;99383.69;5035616;28;20640;-85
2021/08/15 03:46:40;;;;;;;15.27;13.80;;;;;;;22.59;71.04;99394.09;5035895;28;20282;-85
2021/08/15 03:49:07;;;;;;;15.97;13.70;;;;;;;22.66;70.67;99386.31;5036036;28;20244;-85
2021/08/15 03:51:33;;;;;;;15.93;14.23;;;;;;;22.75;70.42;99384.50;5019292;28;20667;-85
2021/08/15 03:54:00;;;;;;;15.13;13.53;;;;;;;22.81;70.35;99392.31;5036038;28;20222;-85
2021/08/15 03:56:27;;;;;;;14.43;13.03;;;;;;;22.78;70.35;99383.91;5035597;28;20278;-86
2021/08/15 03:58:54;;;;;;;16.37;13.53;;;;;;;22.92;70.16;99403.00;5035602;28;20320;-86
2021/08/15 04:01:20;;;;;;;14.87;13.17;;;;;;;22.90;69.95;99394.31;5019120;28;20245;-85
2021/08/15 04:03:47;;;;;;;14.97;13.53;;;;;;;22.96;69.74;99401.25;5035317;28;20687;-85
2021/08/15 04:06:21;;;;;;;14.93;13.53;;;;;;;22.92;69.83;99384.69;5036212;28;20231;-85
2021/08/15 04:08:51;;;;;;;14.80;13.37;;;;;;;22.90;70.28;99405.25;5035560;28;20233;-85
2021/08/15 04:11:18;;;;;;;15.93;13.53;;;;;;;22.86;70.39;99393.31;5019157;28;20227;-85
2021/08/15 04:13:45;;;;;;;14.83;13.33;;;;;;;22.83;70.65;99397.44;5035300;28;20533;-85
2021/08/15 04:16:12;;;;;;;14.97;13.43;;;;;;;22.92;70.29;99397.53;5018631;28;20240;-85
2021/08/15 04:18:40;;;;;;;15.55;12.20;;;;;;;22.95;69.83;99391.47;5035257;28;20224;-85
2021/08/15 04:21:07;;;;;;;13.93;12.60;;;;;;;23.01;69.36;99385.56;5035525;28;20563;-85
2021/08/15 04:23:33;;;;;;;13.90;12.00;;;;;;;23.10;68.74;99391.13;5035299;28;20233;-85
2021/08/15 04:26:00;;;;;;;13.33;11.93;;;;;;;23.19;68.69;99397.47;5035325;28;20320;-86
2021/08/15 04:28:27;;;;;;;13.90;12.50;;;;;;;23.27;68.77;99391.28;5018365;28;20719;-85
2021/08/15 04:30:54;;;;;;;14.17;11.90;;;;;;;23.43;68.42;99394.44;5018518;28;20227;-85
2021/08/15 04:33:24;;;;;;;15.00;12.52;;;;;;;;;;5018692;28;20705;-85
2021/08/15 04:35:52;;;;;;;13.90;12.45;;;;;;;23.65;67.71;99399.97;5034916;28;20236;-85
2021/08/15 04:38:20;;;;;;;13.80;12.60;;;;;;;23.75;67.28;99391.50;5033712;28;20226;-85
2021/08/15 04:40:50;;;;;;;15.70;12.57;;;;;;;23.86;66.71;99387.41;5018711;28;20232;-85
2021/08/15 04:43:20;;;;;;;14.65;12.57;;;;;;;24.07;66.53;99404.94;5018722;28;20230;-85
2021/08/15 04:45:48;;;;;;;14.75;12.90;;;;;;;24.08;65.81;99400.22;5018695;28;20230;-85
2021/08/15 04:48:15;;;;;;;14.10;12.80;;;;;;;23.96;66.76;99408.22;5034209;28;20230;-85
2021/08/15 04:50:43;;;;;;;14.50;13.00;;;;;;;23.42;68.47;99409.25;5018612;28;20297;-85
2021/08/15 04:53:10;;;;;;;15.27;13.75;;;;;;;23.41;69.00;99413.13;5018386;28;20225;-84
2021/08/15 04:55:37;;;;;;;39.47;34.30;;;;;;;23.49;68.21;99413.22;5018469;28;20232;-84
2021/08/15 04:58:04;;;;;;;23.48;20.27;;;;;;;23.50;68.38;99400.34;5017810;28;20313;-84
2021/08/15 05:00:31;;;;;;;16.50;14.43;;;;;;;23.67;67.90;99406.75;5018287;28;20256;-84
2021/08/15 05:02:59;;;;;;;15.68;13.48;;;;;;;23.79;67.80;99414.41;5034584;28;20233;-85
2021/08/15 05:05:26;;;;;;;13.73;12.20;;;;;;;23.79;67.34;99406.19;5018357;28;20288;-85
2021/08/15 05:07:53;;;;;;;14.90;13.38;;;;;;;23.94;67.13;99410.44;5034202;28;20242;-85
2021/08/15 05:10:20;;;;;;;14.75;12.85;;;;;;;24.16;66.29;99407.72;5017203;28;20241;-84
2021/08/15 05:12:47;;;;;;;13.32;12.02;;;;;;;24.22;66.05;99397.44;5017961;28;20276;-85
2021/08/15 05:15:14;;;;;;;17.00;12.73;;;;;;;24.60;65.32;99412.25;5050878;28;20230;-85
2021/08/15 05:17:41;;;;;;;13.25;11.90;;;;;;;24.82;64.33;99403.16;5035433;28;20261;-85
2021/08/15 05:20:09;;;;;;;13.30;11.95;;;;;;;25.11;63.90;99400.63;5033956;28;20262;-84
2021/08/15 05:22:35;;;;;;;15.25;12.50;;;;;;;25.48;62.07;99401.13;5017861;28;20226;-86
2021/08/15 05:25:03;;;;;;;12.90;11.57;;;;;;;25.70;61.52;99382.63;5034432;28;20230;-86
2021/08/15 05:27:29;;;;;;;13.20;11.85;;;;;;;25.98;60.54;99391.28;5034302;28;20646;-86
2021/08/15 05:29:56;;;;;;;12.80;11.50;;;;;;;26.18;60.21;99400.72;5050667;28;20247;-86
2021/08/15 05:32:23;;;;;;;13.82;11.07;;;;;;;26.45;59.23;99394.06;5034972;28;20620;-87
2021/08/15 05:34:50;;;;;;;12.68;11.38;;;;;;;26.62;58.93;99399.44;5034262;28;20701;-86
2021/08/15 05:37:16;;;;;;;14.13;10.85;;;;;;;26.85;58.41;99405.47;5034156;28;20704;-87
2021/08/15 05:39:43;;;;;;;13.65;11.93;;;;;;;26.85;58.14;99408.22;5017735;28;20302;-86
2021/08/15 05:42:10;;;;;;;14.48;12.38;;;;;;;26.78;58.64;99411.50;5033419;28;20226;-87
2021/08/15 05:44:39;;;;;;;12.75;11.50;;;;;;;26.66;59.24;99392.97;5034631;28;20244;-86
2021/08/15 05:47:08;;;;;;;13.65;12.18;;;;;;;26.85;58.74;99411.78;5034290;28;20213;-86
2021/08/15 05:49:35;;;;;;;12.07;10.98;;;;;;;26.83;58.62;99391.28;5037066;28;20228;-87
2021/08/15 05:52:02;;;;;;;13.15;10.60;;;;;;;27.04;58.28;99408.63;5040289;28;20591;-87
2021/08/15 05:54:29;;;;;;;11.63;10.45;;;;;;;27.12;57.87;99408.56;5040407;28;20228;-87
2021/08/15 05:56:55;;;;;;;12.55;10.98;;;;;;;27.14;58.03;99406.28;5056962;28;20645;-87
2021/08/15 05:59:23;;;;;;;14.43;11.23;;;;;;;27.39;57.68;99406.44;5040583;28;20225;-85
2021/08/15 06:01:50;;;;;;;12.48;11.23;;;;;;;27.72;57.25;99407.28;5040383;28;20295;-87
2021/08/15 06:04:17;;;;;;;15.68;10.93;;;;;;;28.12;55.74;99406.75;5040176;28;20540;-87
2021/08/15 06:06:44;;;;;;;12.27;11.07;;;;;;;28.41;55.51;99401.88;5040439;28;20620;-87
2021/08/15 06:09:11;;;;;;;11.88;10.52;;;;;;;28.75;54.43;99394.31;5040503;28;20226;-86
2021/08/15 06:11:38;;;;;;;11.07;9.98;;;;;;;28.85;53.55;99399.34;5023763;28;20260;-87
2021/08/15 06:14:05;;;;;;;14.35;10.15;;;;;;;29.01;54.00;99402.22;5039860;28;20656;-87
2021/08/15 06:16:32;;;;;;;13.63;10.93;;;;;;;29.15;53.85;99399.91;5040373;28;20675;-87
2021/08/15 06:18:58;;;;;;;12.77;10.50;;;;;;;29.18;52.99;99401.94;5040311;28;20317;-85
2021/08/15 06:21:25;;;;;;;13.27;10.20;;;;;;;29.33;53.42;99394.94;5040188;28;20229;-87
2021/08/15 06:23:52;;;;;;;14.07;9.90;;;;;;;29.49;53.19;99406.84;5023790;28;20237;-86
2021/08/15 06:26:19;;;;;;;11.25;9.63;;;;;;;29.66;52.17;99401.84;5039757;28;20283;-87
2021/08/15 06:28:46;;;;;;;13.05;9.18;;;;;;;29.81;51.38;99394.75;5023815;28;20233;-86
2021/08/15 06:31:22;;;;;;;12.65;9.43;;;;;;;29.82;51.46;99401.06;5041689;28;20258;-87
2021/08/15 06:33:50;;;;;;;11.27;9.38;;;;;;;29.83;51.65;99405.44;5026896;28;20260;-87
2021/08/15 06:36:17;;;;;;;10.98;9.80;;;;;;;29.94;51.59;99401.84;5042829;28;20229;-87
2021/08/15 06:38:43;;;;;;;14.85;9.80;;;;;;;30.02;50.58;99405.59;5056940;28;20317;-87
2021/08/15 06:41:10;;;;;;;14.05;9.73;;;;;;;30.41;50.15;99409.38;5050502;28;20306;-87
2021/08/15 06:43:37;;;;;;;11.82;9.20;;;;;;;30.82;49.52;99397.78;5043046;28;20275;-87
2021/08/15 06:46:04;;;;;;;11.77;8.73;;;;;;;31.19;48.99;99401.03;5042839;28;20248;-87
2021/08/15 06:48:31;;;;;;;9.65;8.65;;;;;;;31.35;47.63;99398.22;5043252;28;20231;-87
2021/08/15 06:50:59;;;;;;;11.05;8.93;;;;;;;31.50;47.17;99399.31;5043379;28;20551;-86
2021/08/15 06:53:27;;;;;;;10.88;9.10;;;;;;;31.69;47.31;99391.81;5042906;28;20229;-86
2021/08/15 06:55:54;;;;;;;13.43;9.35;;;;;;;31.61;48.43;99406.69;5026178;28;20260;-86
2021/08/15 06:58:21;;;;;;;12.45;9.18;;;;;;;31.87;47.19;99400.44;5042143;28;20237;-87
2021/08/15 07:00:48;;;;;;;10.73;8.82;;;;;;;31.95;47.08;99393.09;5038347;28;20222;-86
2021/08/15 07:03:15;;;;;;;9.80;8.80;;;;;;;32.06;46.76;99407.94;5055605;28;20227;-86
2021/08/15 07:05:42;;;;;;;13.07;8.90;;;;;;;31.98;46.64;99392.34;5039666;28;20225;-86
2021/08/15 07:08:09;;;;;;;11.20;8.65;;;;;;;31.87;46.61;99379.09;5042410;28;20625;-86
2021/08/15 07:10:36;;;;;;;10.15;8.32;;;;;;;32.04;46.24;99394.47;5052663;28;20276;-84
2021/08/15 07:13:08;;;;;;;10.27;8.90;;;;;;;32.14;46.58;99393.91;5046484;28;20226;-85
2021/08/15 07:15:35;;;;;;;13.93;9.13;;;;;;;32.30;46.31;99390.97;5017788;28;20245;-86
2021/08/15 07:18:03;;;;;;;13.18;9.18;;;;;;;32.11;45.87;99386.31;5032300;28;20595;-86
2021/08/15 07:20:30;;;;;;;11.65;9.48;;;;;;;32.08;46.17;99380.66;5034045;28;20222;-87
2021/08/15 07:22:57;;;;;;;11.93;8.82;;;;;;;32.21;46.83;99363.50;5019685;28;20642;-85
2021/08/15 07:25:28;;;;;;;12.27;9.30;;;;;;;32.31;46.60;99378.72;5019570;28;20265;-86
2021/08/15 07:27:56;;;;;;;14.20;9.43;;;;;;;32.46;45.63;99368.69;5019780;28;20552;-87
2021/08/15 07:30:22;;;;;;;10.13;8.73;;;;;;;32.57;44.64;99369.66;5035380;28;20234;-86
2021/08/15 07:32:54;;;;;;;11.55;8.38;;;;;;;32.75;43.83;99377.13;5019190;28;20230;-87
2021/08/15 07:35:22;;;;;;;12.57;8.55;;;;;;;32.97;43.57;99374.63;5019252;28;20879;-87
2021/08/15 07:37:48;;;;;;;15.25;8.90;;;;;;;32.89;43.34;99375.72;5035628;28;20234;-87
2021/08/15 07:40:16;;;;;;;13.40;8.95;;;;;;;32.94;43.97;99375.41;5043995;28;20221;-87
2021/08/15 07:42:45;;;;;;;11.95;9.50;;;;;;;32.74;45.49;99371.94;5038760;28;20525;-86
2021/08/15 07:45:13;;;;;;;9.68;8.35;;;;;;;32.62;45.52;99359.03;5055655;28;20601;-87
2021/08/15 07:47:39;;;;;;;10.48;8.07;;;;;;;32.61;44.91;99371.31;5026056;28;20225;-86
2021/08/15 07:50:08;;;;;;;11.90;8.95;;;;;;;32.39;45.61;99369.34;5018709;28;20250;-86
2021/08/15 07:52:36;;;;;;;14.20;9.15;;;;;;;32.44;44.94;99371.00;5018993;28;20233;-86
2021/08/15 07:55:04;;;;;;;12.38;8.43;;;;;;;32.56;43.68;99368.84;5019127;28;20237;-85
2021/08/15 07:57:31;;;;;;;9.80;8.15;;;;;;;32.63;43.92;99365.41;5035213;28;20226;-87
2021/08/15 07:59:58;;;;;;;9.55;8.23;;;;;;;32.68;42.34;99367.88;5035546;28;20253;-86
2021/08/15 08:02:26;;;;;;;9.43;7.50;;;;;;;32.80;40.20;99364.91;5018456;28;20229;-87
2021/08/15 08:04:53;;;;;;;8.32;7.53;;;;;;;32.86;38.14;99363.38;5035224;28;20617;-87
2021/08/15 08:07:22;;;;;;;8.88;7.97;;;;;;;33.04;37.83;99360.84;5035003;28;20226;-86
2021/08/15 08:09:49;;;;;;;12.43;8.57;;;;;;;32.98;40.24;99356.81;5034873;28;20230;-86
2021/08/15 08:12:17;;;;;;;14.05;8.18;;;;;;;33.08;40.28;99353.41;5037044;28;20297;-85
2021/08/15 08:14:45;;;;;;;9.15;7.50;;;;;;;33.07;38.98;99355.38;5052778;28;20217;-86
2021/08/15 08:17:13;;;;;;;9.45;7.47;;;;;;;32.97;37.86;99350.47;5053669;28;20640;-89
2021/08/15 08:19:41;;;;;;;8.55;7.60;;;;;;;32.85;39.03;99355.44;5028366;28;20653;-89
2021/08/15 08:22:09;;;;;;;8.15;7.35;;;;;;;32.41;40.27;99346.81;5052219;28;20287;-89
2021/08/15 08:24:36;;;;;;;10.82;7.18;;;;;;;32.50;39.67;99350.94;5038660;28;20276;-87
2021/08/15 08:27:04;;;;;;;8.60;6.88;;;;;;;32.49;39.67;99352.09;5055029;28;20647;-88
2021/08/15 08:29:30;;;;;;;9.05;7.55;;;;;;;32.08;41.23;99351.00;5025766;28;20280;-89
2021/08/15 08:31:57;;;;;;;7.80;7.00;;;;;;;32.03;42.33;99351.28;5038182;28;20226;-89
2021/08/15 08:34:24;;;;;;;9.50;7.47;;;;;;;32.03;41.70;99339.41;5035769;28;20225;-89
2021/08/15 08:36:51;;;;;;;8.07;7.38;;;;;;;32.05;40.90;99334.31;5038434;28;20291;-89
2021/08/15 08:39:18;;;;;;;7.82;7.13;;;;;;;31.91;41.86;99354.25;5047565;28;20574;-88
2021/08/15 08:41:45;;;;;;;8.40;7.60;;;;;;;31.88;41.85;99354.97;5054089;28;20222;-89
2021/08/15 08:44:13;;;;;;;9.35;7.72;;;;;;;31.91;41.74;99354.25;5030162;28;20222;-89
2021/08/15 08:46:40;;;;;;;8.82;7.63;;;;;;;31.99;41.87;99352.41;5021964;28;20252;-90
2021/08/15 08:49:07;;;;;;;7.82;7.13;;;;;;;31.99;41.80;99352.41;5037943;28;20233;-90
2021/08/15 08:51:34;;;;;;;8.13;7.22;;;;;;;32.24;40.93;99337.06;5038398;28;20237;-90
2021/08/15 08:54:22;;;;;;;7.78;7.07;;;;;;;32.59;38.74;99342.34;5040441;28;20241;-90
2021/08/15 08:56:49;;;;;;;7.28;6.53;;;;;;;32.72;36.71;99341.78;5021581;28;20253;-90
2021/08/15 08:59:16;;;;;;;7.13;6.43;;;;;;;33.00;38.04;99327.50;5037849;28;20523;-90
2021/08/15 09:01:44;;;;;;;8.50;7.47;;;;;;;33.34;37.89;99339.47;5037700;28;20230;-90
2021/08/15 09:04:11;;;;;;;7.32;6.63;;;;;;;33.44;36.61;99333.25;5038042;28;20233;-90
2021/08/15 09:06:39;;;;;;;7.05;6.35;;;;;;;33.32;35.27;99332.69;5037986;28;20233;-90
2021/08/15 09:09:16;;;;;;;8.23;6.00;;;;;;;33.57;34.60;99328.22;5054547;28;20241;-90
2021/08/15 09:11:45;;;;;;;7.80;7.00;;;;;;;33.61;34.68;99329.06;5037597;28;20251;-90
2021/08/15 09:14:25;;;;;;;7.25;6.65;;;;;;;33.79;34.77;99338.41;5037381;28;20240;-90
2021/08/15 09:17:01;;;;;;;7.72;6.82;;;;;;;33.74;34.30;99335.97;5037533;28;20228;-89
2021/08/15 09:19:35;;;;;;;7.75;6.60;;;;;;;33.65;33.55;99332.69;5021847;28;20675;-88
2021/08/15 09:22:18;;;;;;;7.03;6.13;;;;;;;33.76;33.27;99328.06;5037091;28;20221;-87
2021/08/15 09:24:59;;;;;;;6.57;5.93;;;;;;;33.91;32.88;99332.59;5036921;28;20229;-86
2021/08/15 09:27:26;;;;;;;6.78;5.90;;;;;;;33.91;31.86;99324.25;5053634;28;20233;-88
2021/08/15 09:30:13;;;;;;;6.85;5.72;;;;;;;33.83;32.64;99319.03;5052862;28;20222;-88
2021/08/15 09:33:09;;;;;;;6.93;6.25;;;;;;;34.09;33.13;99316.09;5022606;28;20236;-88
2021/08/15 09:35:35;;;;;;;6.55;5.93;;;;;;;34.11;31.68;99316.47;5036864;28;20316;-88
2021/08/15 09:38:06;;;;;;;7.00;6.32;;;;;;;33.94;31.60;99306.81;5053874;28;20237;-87
2021/08/15 09:40:43;;;;;;;8.80;6.30;;;;;;;33.86;31.10;99318.25;5068773;28;20477;-85
2021/08/15 09:43:18;;;;;;;7.05;6.35;;;;;;;33.99;31.83;99308.44;5050700;28;20237;-86
2021/08/15 09:45:49;;;;;;;6.47;5.88;;;;;;;33.95;30.89;99294.53;5035373;28;20231;-86
2021/08/15 09:48:21;;;;;;;6.53;6.03;;;;;;;33.90;30.82;99302.41;5052268;28;20315;-86
2021/08/15 09:51:08;;;;;;;7.07;6.00;;;;;;;33.97;31.86;99294.13;5013919;28;20272;-86
2021/08/15 09:53:41;;;;;;;8.07;7.30;;;;;;;34.20;31.51;99289.22;5049306;28;20691;-85
2021/08/15 09:56:08;;;;;;;7.70;7.00;;;;;;;34.33;32.07;99301.63;5032582;28;20234;-85
2021/08/15 09:58:36;;;;;;;6.72;6.18;;;;;;;34.50;29.98;99294.56;5032849;28;20641;-86
2021/08/15 10:01:05;;;;;;;6.15;5.50;;;;;;;34.72;30.62;99295.53;5016687;28;20230;-85
2021/08/15 10:03:34;;;;;;;7.18;5.63;;;;;;;34.72;29.46;99278.81;5016402;28;20234;-86
2021/08/15 10:06:02;;;;;;;7.00;6.40;;;;;;;34.60;30.99;99281.91;5016164;28;20232;-88
2021/08/15 10:08:30;;;;;;;6.72;5.53;;;;;;;34.43;29.41;99280.63;5016871;28;20625;-88
2021/08/15 10:10:57;;;;;;;6.35;5.57;;;;;;;34.64;29.37;99271.59;5016853;28;20238;-88
2021/08/15 10:13:24;;;;;;;6.40;5.78;;;;;;;34.90;29.38;99280.50;5016540;28;20368;-88
2021/08/15 10:16:04;;;;;;;6.22;5.50;;;;;;;34.99;29.24;99274.63;5033131;28;20284;-87
2021/08/15 10:18:34;;;;;;;7.15;6.18;;;;;;;34.95;30.04;99275.78;5032592;28;20580;-88
2021/08/15 10:21:06;;;;;;;6.68;5.95;;;;;;;34.48;30.61;99275.47;5000326;28;20238;-88
2021/08/15 10:23:39;;;;;;;9.00;6.03;;;;;;;34.44;29.94;99269.09;5033149;28;20283;-88
2021/08/15 10:26:27;;;;;;;8.23;6.43;;;;;;;34.69;29.86;99269.28;5032699;28;20226;-87
2021/08/15 10:28:54;;;;;;;6.88;6.00;;;;;;;34.61;29.39;99259.28;5016479;28;20288;-88
2021/08/15 10:31:22;;;;;;;5.95;5.45;;;;;;;34.94;29.46;99257.50;5016778;28;20236;-87
2021/08/15 10:33:56;;;;;;;6.78;6.20;;;;;;;35.18;28.96;99254.03;5000161;28;20230;-88
2021/08/15 10:36:27;;;;;;;7.25;6.55;;;;;;;35.54;28.84;99254.91;5033636;28;20280;-86
2021/08/15 10:38:56;;;;;;;9.25;6.03;;;;;;;35.32;30.04;99246.50;5020273;28;20229;-86
2021/08/15 10:41:45;;;;;;;7.07;6.38;;;;;;;35.68;28.53;99249.38;5020084;28;20249;-86
2021/08/15 10:44:13;;;;;;;6.45;5.88;;;;;;;35.91;28.30;99244.22;5035904;28;20234;-86
2021/08/15 10:47:12;;;;;;;6.72;6.13;;;;;;;35.94;29.21;99237.84;5019943;28;20703;-85
2021/08/15 10:49:54;;;;;;;7.03;6.32;;;;;;;35.63;29.11;99236.63;5020015;28;20234;-86
2021/08/15 10:52:35;;;;;;;8.48;6.93;;;;;;;35.70;29.41;99230.28;5018806;28;20296;-85
2021/08/15 10:55:13;;;;;;;7.32;6.50;;;;;;;35.32;30.35;99224.22;5037406;28;20649;-86
2021/08/15 10:57:43;;;;;;;7.43;6.70;;;;;;;35.38;30.40;99226.63;5019739;28;20226;-86
2021/08/15 11:00:28;;;;;;;7.28;6.38;;;;;;;35.58;29.66;99225.06;5035891;28;20276;-86
2021/08/15 11:02:59;;;;;;;9.52;6.68;;;;;;;35.54;29.33;99227.84;5035950;28;20244;-86
2021/08/15 11:05:38;;;;;;;8.07;6.50;;;;;;;35.58;30.15;99206.38;5036166;28;20230;-85
2021/08/15 11:08:33;;;;;;;7.05;6.40;;;;;;;35.96;30.05;99213.16;5019594;28;20254;-86
2021/08/15 11:11:27;;;;;;;6.97;6.38;;;;;;;36.10;29.43;99215.94;5033909;28;20230;-86
2021/08/15 11:14:17;;;;;;;8.95;6.75;;;;;;;36.42;28.33;99209.53;5035645;28;20618;-86
2021/08/15 11:16:44;;;;;;;7.30;6.60;;;;;;;35.70;30.75;99211.56;5028200;28;20214;-85
2021/08/15 11:19:11;;;;;;;7.22;6.50;;;;;;;35.92;29.50;99204.00;5035871;28;20256;-85
2021/08/15 11:22:10;;;;;;;7.65;6.82;;;;;;;35.77;29.52;99196.84;5036207;28;20252;-84
2021/08/15 11:24:38;;;;;;;7.57;6.20;;;;;;;36.06;30.40;99195.63;5032878;28;20230;-85
2021/08/15 11:27:08;;;;;;;7.53;6.53;;;;;;;36.18;29.68;99175.72;5019774;28;20696;-86
2021/08/15 11:29:37;;;;;;;7.88;6.90;;;;;;;36.40;28.89;99178.44;5019811;28;20230;-85
2021/08/15 11:32:05;;;;;;;7.47;6.68;;;;;;;36.52;28.88;99172.44;5014076;28;20223;-85
2021/08/15 11:34:35;;;;;;;10.68;6.80;;;;;;;36.75;28.97;99180.34;5016353;28;20630;-85